createdAt,value
2018-06-16T00:00:31.913Z,15.85
2018-06-16T00:03:01.572Z,17.35
2018-06-16T00:05:30.731Z,16.35
2018-06-16T00:08:01.746Z,15.80
2018-06-16T00:10:31.325Z,16.15
2018-06-16T00:13:00.550Z,17.70
2018-06-16T00:15:29.675Z,15.40
2018-06-16T00:17:59.383Z,17.20
2018-06-16T00:20:28.358Z,17.80
2018-06-16T00:22:57.883Z,18.32
2018-06-16T00:25:26.811Z,17.35
2018-06-16T00:27:55.733Z,17.27
2018-06-16T00:30:24.712Z,16.75
2018-06-16T00:32:53.568Z,17.60
2018-06-16T00:35:22.469Z,17.50
2018-06-16T00:37:51.398Z,19.15
2018-06-16T00:40:21.082Z,17.85
2018-06-16T00:42:51.203Z,18.55
2018-06-16T00:45:20.943Z,18.98
2018-06-16T00:47:50.199Z,17.92
2018-06-16T00:50:19.702Z,17.48
2018-06-16T00:52:49.536Z,17.70
2018-06-16T00:55:18.716Z,19.77
2018-06-16T00:57:48.993Z,18.35
2018-06-16T01:00:19.162Z,17.75
2018-06-16T01:02:48.791Z,17.98
2018-06-16T01:05:18.500Z,18.15
2018-06-16T01:07:47.708Z,18.52
2018-06-16T01:10:16.903Z,17.10
2018-06-16T01:12:45.983Z,17.90
2018-06-16T01:15:16.571Z,18.52
2018-06-16T01:17:45.774Z,18.07
2018-06-16T01:20:14.971Z,18.80
2018-06-16T01:22:44.782Z,17.02
2018-06-16T01:25:13.692Z,16.32
2018-06-16T01:27:42.590Z,17.80
2018-06-16T01:30:11.967Z,18.45
2018-06-16T01:32:40.846Z,16.60
2018-06-16T01:35:09.936Z,16.75
2018-06-16T01:37:38.888Z,16.67
2018-06-16T01:40:07.798Z,17.52
2018-06-16T01:42:36.694Z,17.62
2018-06-16T01:45:05.626Z,17.48
2018-06-16T01:47:34.536Z,18.92
2018-06-16T01:50:04.429Z,19.25
2018-06-16T01:52:33.679Z,17.80
2018-06-16T01:55:02.883Z,17.40
2018-06-16T01:57:32.122Z,19.20
2018-06-16T02:00:01.378Z,20.12
2018-06-16T02:02:30.759Z,16.57
2018-06-16T02:05:00.490Z,16.42
2018-06-16T02:07:29.775Z,17.73
2018-06-16T02:09:58.908Z,17.25
2018-06-16T02:12:28.104Z,17.52
2018-06-16T02:14:57.291Z,16.40
2018-06-16T02:17:26.455Z,16.95
2018-06-16T02:19:55.827Z,18.10
2018-06-16T02:22:24.681Z,17.55
2018-06-16T02:24:54.391Z,16.25
2018-06-16T02:27:23.647Z,17.90
2018-06-16T02:29:52.678Z,19.32
2018-06-16T02:32:21.935Z,16.93
2018-06-16T02:34:51.538Z,18.00
2018-06-16T02:37:20.572Z,17.98
2018-06-16T02:39:49.513Z,17.35
2018-06-16T02:42:18.722Z,18.40
2018-06-16T02:44:47.891Z,17.37
2018-06-16T02:47:17.120Z,17.90
2018-06-16T02:49:46.087Z,18.50
2018-06-16T02:52:15.008Z,18.95
2018-06-16T02:54:43.881Z,17.77
2018-06-16T02:57:12.804Z,18.75
2018-06-16T02:59:41.655Z,17.20
2018-06-16T03:02:10.568Z,18.85
2018-06-16T03:04:39.451Z,17.87
2018-06-16T03:07:08.514Z,17.73
2018-06-16T03:09:37.418Z,17.50
2018-06-16T03:12:06.543Z,16.42
2018-06-16T03:14:35.537Z,17.90
2018-06-16T03:17:04.505Z,18.10
2018-06-16T03:19:33.617Z,17.37
2018-06-16T03:22:02.775Z,18.23
2018-06-16T03:24:31.909Z,17.87
2018-06-16T03:27:01.068Z,14.55
2018-06-16T03:29:30.105Z,14.60
2018-06-16T03:31:59.243Z,14.10
2018-06-16T03:34:28.751Z,14.95
2018-06-16T03:36:57.873Z,15.28
2018-06-16T03:39:26.768Z,15.70
2018-06-16T03:41:55.672Z,14.78
2018-06-16T03:44:24.648Z,16.40
2018-06-16T03:46:53.711Z,15.68
2018-06-16T03:49:22.741Z,15.25
2018-06-16T03:51:51.930Z,15.48
2018-06-16T03:54:20.918Z,15.80
2018-06-16T03:56:50.103Z,16.80
2018-06-16T03:59:19.001Z,15.85
2018-06-16T04:01:47.921Z,15.65
2018-06-16T04:04:16.438Z,16.00
2018-06-16T04:06:45.368Z,15.70
2018-06-16T04:09:14.263Z,15.88
2018-06-16T04:11:43.178Z,14.55
2018-06-16T04:14:12.365Z,15.63
2018-06-16T04:16:41.323Z,14.75
2018-06-16T04:19:10.241Z,14.98
2018-06-16T04:21:39.101Z,14.05
2018-06-16T04:24:08.018Z,15.43
2018-06-16T04:26:37.082Z,15.60
2018-06-16T04:29:06.096Z,16.35
2018-06-16T04:31:35.060Z,16.60
2018-06-16T04:34:03.983Z,16.77
2018-06-16T04:36:32.947Z,16.57
2018-06-16T04:39:02.099Z,16.30
2018-06-16T04:41:31.015Z,15.63
2018-06-16T04:43:59.878Z,15.10
2018-06-16T04:46:28.841Z,15.25
2018-06-16T04:48:57.740Z,15.58
2018-06-16T04:51:26.870Z,16.67
2018-06-16T04:53:55.874Z,14.93
2018-06-16T04:56:24.863Z,15.45
2018-06-16T04:58:54.019Z,13.78
2018-06-16T05:01:22.903Z,14.50
2018-06-16T05:03:51.755Z,15.80
2018-06-16T05:06:20.668Z,16.37
2018-06-16T05:08:49.579Z,15.65
2018-06-16T05:11:18.708Z,14.38
2018-06-16T05:13:47.603Z,15.80
2018-06-16T05:16:16.489Z,15.85
2018-06-16T05:18:45.700Z,17.52
2018-06-16T05:21:14.579Z,15.32
2018-06-16T05:23:43.514Z,15.48
2018-06-16T05:26:12.361Z,16.23
2018-06-16T05:28:41.270Z,15.88
2018-06-16T05:31:10.223Z,15.65
2018-06-16T05:33:39.110Z,15.13
2018-06-16T05:36:07.960Z,14.35
2018-06-16T05:38:36.921Z,16.57
2018-06-16T05:41:05.880Z,15.80
2018-06-16T05:43:35.617Z,15.88
2018-06-16T05:46:04.551Z,15.93
2018-06-16T05:48:33.458Z,17.15
2018-06-16T05:51:02.391Z,15.65
2018-06-16T05:53:31.258Z,15.38
2018-06-16T05:56:00.156Z,13.75
2018-06-16T05:58:29.098Z,14.90
2018-06-16T06:00:57.991Z,14.83
2018-06-16T06:03:26.853Z,16.70
2018-06-16T06:05:55.798Z,14.10
2018-06-16T06:08:24.666Z,13.57
2018-06-16T06:10:53.581Z,14.47
2018-06-16T06:13:22.500Z,13.20
2018-06-16T06:15:51.431Z,13.37
2018-06-16T06:18:20.428Z,10.97
2018-06-16T06:20:49.318Z,11.17
2018-06-16T06:23:18.305Z,11.60
2018-06-16T06:25:47.200Z,8.80
2018-06-16T06:28:16.100Z,9.40
2018-06-16T06:30:44.987Z,9.20
2018-06-16T06:33:13.887Z,9.90
2018-06-16T06:35:43.272Z,10.13
2018-06-16T06:38:12.223Z,10.00
2018-06-16T06:40:41.255Z,9.60
2018-06-16T06:43:10.278Z,10.83
2018-06-16T06:45:39.463Z,8.93
2018-06-16T06:48:08.503Z,7.20
2018-06-16T06:50:37.857Z,7.40
2018-06-16T06:53:07.247Z,6.10
2018-06-16T06:55:36.236Z,5.90
2018-06-16T06:58:06.809Z,6.53
2018-06-16T07:00:36.046Z,5.97
2018-06-16T07:03:05.745Z,6.63
2018-06-16T07:05:36.030Z,5.93
2018-06-16T07:08:06.308Z,6.70
2018-06-16T07:10:36.717Z,5.37
2018-06-16T07:13:06.005Z,5.80
2018-06-16T07:15:35.156Z,5.20
2018-06-16T07:18:06.244Z,6.13
2018-06-16T07:20:35.696Z,4.77
2018-06-16T07:23:05.065Z,6.10
2018-06-16T07:25:34.183Z,5.90
2018-06-16T07:28:03.392Z,6.37
2018-06-16T07:30:32.522Z,5.73
2018-06-16T07:33:01.804Z,4.70
2018-06-16T07:35:30.724Z,5.40
2018-06-16T07:37:59.681Z,5.70
2018-06-16T07:40:28.637Z,5.40
2018-06-16T07:42:57.511Z,5.40
2018-06-16T07:45:26.450Z,5.33
2018-06-16T07:47:55.322Z,5.03
2018-06-16T07:50:24.221Z,5.43
2018-06-16T07:52:53.084Z,5.43
2018-06-16T07:55:21.963Z,5.20
2018-06-16T07:57:50.876Z,5.70
2018-06-16T08:00:19.808Z,4.70
2018-06-16T08:02:48.750Z,5.00
2018-06-16T08:05:17.699Z,4.63
2018-06-16T08:07:46.636Z,4.40
2018-06-16T08:10:15.939Z,4.37
2018-06-16T08:12:45.160Z,4.40
2018-06-16T08:15:14.401Z,4.20
2018-06-16T08:17:43.776Z,4.30
2018-06-16T08:20:12.365Z,4.17
2018-06-16T08:22:41.616Z,3.90
2018-06-16T08:25:10.769Z,4.23
2018-06-16T08:27:39.996Z,4.70
2018-06-16T08:30:09.824Z,3.90
2018-06-16T08:32:38.876Z,4.50
2018-06-16T08:35:08.066Z,4.30
2018-06-16T08:37:36.993Z,4.90
2018-06-16T08:40:05.982Z,4.63
2018-06-16T08:42:35.178Z,4.70
2018-06-16T08:45:04.327Z,4.40
2018-06-16T08:47:33.675Z,4.37
2018-06-16T08:50:02.663Z,3.97
2018-06-16T08:52:31.656Z,3.70
2018-06-16T08:55:00.554Z,3.30
2018-06-16T08:57:29.447Z,3.70
2018-06-16T08:59:58.356Z,3.90
2018-06-16T09:02:27.382Z,4.17
2018-06-16T09:04:56.263Z,3.70
2018-06-16T09:07:25.123Z,3.67
2018-06-16T09:09:54.039Z,4.20
2018-06-16T09:12:23.036Z,4.37
2018-06-16T09:14:52.013Z,4.10
2018-06-16T09:17:21.017Z,4.50
2018-06-16T09:19:49.882Z,3.97
2018-06-16T09:22:18.841Z,4.27
2018-06-16T09:24:47.751Z,4.03
2018-06-16T09:27:16.253Z,4.87
2018-06-16T09:29:45.161Z,4.33
2018-06-16T09:32:14.092Z,3.60
2018-06-16T09:34:42.653Z,4.53
2018-06-16T09:37:11.557Z,4.80
2018-06-16T09:39:40.463Z,5.50
2018-06-16T09:42:09.477Z,5.20
2018-06-16T09:44:38.508Z,5.10
2018-06-16T09:47:07.451Z,4.72
2018-06-16T09:49:36.450Z,5.05
2018-06-16T09:52:05.357Z,5.30
2018-06-16T09:54:34.281Z,5.20
2018-06-16T09:57:03.253Z,5.00
2018-06-16T09:59:32.243Z,5.05
2018-06-16T10:02:01.334Z,5.37
2018-06-16T10:04:30.326Z,4.37
2018-06-16T10:06:59.472Z,5.50
2018-06-16T10:09:28.426Z,4.70
2018-06-16T10:11:57.300Z,4.87
2018-06-16T10:14:26.149Z,4.58
2018-06-16T10:16:55.054Z,4.95
2018-06-16T10:19:23.916Z,5.62
2018-06-16T10:21:52.798Z,5.03
2018-06-16T10:24:21.673Z,4.95
2018-06-16T10:26:50.559Z,4.72
2018-06-16T10:29:19.443Z,4.92
2018-06-16T10:31:48.360Z,4.58
2018-06-16T10:34:17.269Z,5.42
2018-06-16T10:36:46.150Z,4.70
2018-06-16T10:39:14.995Z,4.22
2018-06-16T10:41:43.927Z,4.28
2018-06-16T10:44:12.866Z,4.80
2018-06-16T10:46:41.753Z,5.35
2018-06-16T10:49:10.681Z,5.05
2018-06-16T10:51:39.628Z,5.37
2018-06-16T10:54:08.530Z,4.10
2018-06-16T10:56:37.489Z,4.65
2018-06-16T10:59:06.597Z,4.37
2018-06-16T11:01:36.191Z,4.22
2018-06-16T11:04:05.382Z,5.35
2018-06-16T11:06:34.262Z,4.40
2018-06-16T11:09:03.300Z,4.50
2018-06-16T11:11:32.254Z,4.37
2018-06-16T11:14:01.175Z,4.95
2018-06-16T11:16:29.640Z,5.15
2018-06-16T11:18:58.613Z,3.50
2018-06-16T11:21:27.582Z,3.80
2018-06-16T11:23:56.438Z,3.80
2018-06-16T11:26:25.316Z,3.42
2018-06-16T11:28:54.217Z,3.30
2018-06-16T11:31:23.109Z,3.30
2018-06-16T11:33:51.994Z,3.08
2018-06-16T11:36:20.962Z,2.85
2018-06-16T11:38:49.921Z,3.27
2018-06-16T11:41:19.011Z,3.90
2018-06-16T11:43:47.875Z,3.22
2018-06-16T11:46:16.783Z,2.67
2018-06-16T11:48:45.645Z,3.05
2018-06-16T11:51:14.555Z,4.08
2018-06-16T11:53:43.427Z,3.20
2018-06-16T11:56:12.302Z,3.40
2018-06-16T11:58:41.184Z,3.70
2018-06-16T12:01:10.044Z,3.20
2018-06-16T12:03:38.963Z,3.25
2018-06-16T12:06:07.929Z,2.98
2018-06-16T12:08:36.858Z,3.98
2018-06-16T12:11:05.755Z,3.15
2018-06-16T12:13:34.644Z,2.65
2018-06-16T12:16:03.806Z,3.55
2018-06-16T12:18:32.698Z,4.53
2018-06-16T12:21:01.591Z,3.27
2018-06-16T12:23:30.430Z,3.00
2018-06-16T12:25:59.308Z,3.15
2018-06-16T12:28:28.195Z,3.37
2018-06-16T12:30:57.092Z,3.12
2018-06-16T12:33:25.996Z,2.77
2018-06-16T12:35:55.322Z,3.77
2018-06-16T12:38:24.330Z,2.95
2018-06-16T12:40:53.376Z,3.08
2018-06-16T12:43:22.744Z,3.65
2018-06-16T12:45:52.474Z,3.15
2018-06-16T12:48:21.696Z,3.62
2018-06-16T12:50:50.801Z,4.30
2018-06-16T12:53:19.783Z,3.30
2018-06-16T12:55:48.724Z,4.15
2018-06-16T12:58:17.709Z,4.03
2018-06-16T13:00:46.815Z,4.20
2018-06-16T13:03:15.767Z,4.00
2018-06-16T13:05:44.670Z,3.12
2018-06-16T13:08:13.565Z,3.17
2018-06-16T13:10:42.422Z,3.05
2018-06-16T13:13:11.304Z,3.40
2018-06-16T13:15:40.194Z,3.85
2018-06-16T13:18:09.129Z,3.92
2018-06-16T13:20:38.033Z,3.25
2018-06-16T13:23:06.908Z,3.37
2018-06-16T13:25:35.824Z,3.30
2018-06-16T13:28:04.744Z,4.05
2018-06-16T13:30:33.752Z,3.67
2018-06-16T13:33:02.634Z,3.87
2018-06-16T13:35:31.554Z,3.70
2018-06-16T13:38:00.442Z,4.55
2018-06-16T13:40:29.024Z,3.62
2018-06-16T13:42:58.018Z,3.37
2018-06-16T13:45:26.959Z,3.85
2018-06-16T13:47:55.906Z,3.22
2018-06-16T13:50:24.900Z,3.77
2018-06-16T13:52:53.785Z,3.70
2018-06-16T13:55:22.688Z,3.65
2018-06-16T13:57:51.639Z,3.20
2018-06-16T14:00:20.543Z,3.80
2018-06-16T14:02:50.265Z,3.15
2018-06-16T14:05:19.194Z,3.33
2018-06-16T14:07:48.232Z,4.00
2018-06-16T14:10:17.118Z,3.50
2018-06-16T14:12:46.107Z,3.60
2018-06-16T14:15:15.071Z,3.40
2018-06-16T14:17:44.026Z,3.50
2018-06-16T14:20:12.909Z,3.27
2018-06-16T14:22:41.808Z,3.47
2018-06-16T14:25:10.743Z,2.80
2018-06-16T14:27:39.604Z,3.20
2018-06-16T14:30:08.528Z,3.37
2018-06-16T14:32:37.433Z,3.15
2018-06-16T14:35:06.430Z,3.22
2018-06-16T14:37:35.324Z,3.55
2018-06-16T14:40:06.824Z,3.52
2018-06-16T14:42:36.457Z,3.15
2018-06-16T14:45:05.855Z,3.65
2018-06-16T14:47:34.724Z,3.27
2018-06-16T14:50:03.718Z,3.15
2018-06-16T14:52:32.721Z,3.12
2018-06-16T14:55:01.664Z,3.30
2018-06-16T14:57:30.572Z,3.30
2018-06-16T14:59:59.451Z,3.80
2018-06-16T15:02:28.411Z,3.35
2018-06-16T15:04:57.422Z,3.77
2018-06-16T15:10:09.567Z,4.55
2018-06-16T15:12:38.460Z,3.62
2018-06-16T15:15:07.359Z,3.87
2018-06-16T15:17:36.347Z,3.67
2018-06-16T15:20:06.896Z,4.30
2018-06-16T15:22:35.795Z,4.00
2018-06-16T15:25:04.958Z,3.37
2018-06-16T15:27:34.137Z,2.92
2018-06-16T15:30:03.127Z,3.50
2018-06-16T15:32:32.180Z,3.70
2018-06-16T15:35:01.113Z,3.72
2018-06-16T15:37:29.990Z,3.50
2018-06-16T15:39:58.992Z,3.85
2018-06-16T15:42:28.319Z,3.50
2018-06-16T15:44:57.235Z,4.10
2018-06-16T15:47:26.111Z,3.80
2018-06-16T15:49:54.989Z,3.22
2018-06-16T15:52:23.911Z,4.10
2018-06-16T15:54:52.895Z,3.80
2018-06-16T15:57:21.900Z,3.20
2018-06-16T15:59:50.764Z,3.40
2018-06-16T16:02:19.690Z,4.25
2018-06-16T16:04:48.553Z,3.85
2018-06-16T16:07:17.458Z,4.00
2018-06-16T16:09:46.314Z,2.95
2018-06-16T16:12:15.211Z,3.35
2018-06-16T16:14:44.090Z,3.52
2018-06-16T16:17:13.056Z,2.50
2018-06-16T16:19:42.035Z,4.28
2018-06-16T16:22:11.341Z,3.58
2018-06-16T16:24:40.188Z,4.15
2018-06-16T16:27:09.238Z,3.75
2018-06-16T16:29:38.160Z,3.50
2018-06-16T16:32:07.657Z,3.42
2018-06-16T16:34:36.559Z,3.92
2018-06-16T16:37:05.585Z,3.10
2018-06-16T16:39:35.396Z,3.00
2018-06-16T16:42:04.425Z,3.92
2018-06-16T16:44:33.448Z,4.12
2018-06-16T16:47:02.342Z,3.55
2018-06-16T16:49:31.230Z,3.27
2018-06-16T16:52:00.113Z,4.00
2018-06-16T16:54:29.076Z,3.22
2018-06-16T16:56:57.949Z,4.40
2018-06-16T16:59:26.936Z,4.00
2018-06-16T17:01:55.821Z,3.58
2018-06-16T17:04:24.751Z,3.80
2018-06-16T17:06:53.878Z,3.27
2018-06-16T17:09:22.791Z,3.58
2018-06-16T17:11:51.758Z,3.75
2018-06-16T17:14:20.899Z,4.25
2018-06-16T17:16:49.804Z,3.60
2018-06-16T17:19:19.687Z,4.10
2018-06-16T17:21:48.608Z,3.62
2018-06-16T17:24:17.612Z,4.00
2018-06-16T17:26:46.594Z,3.98
2018-06-16T17:29:15.494Z,3.85
2018-06-16T17:31:44.422Z,4.28
2018-06-16T17:34:13.358Z,3.80
2018-06-16T17:36:42.403Z,3.90
2018-06-16T17:39:11.707Z,3.60
2018-06-16T17:41:40.590Z,3.75
2018-06-16T17:44:09.519Z,3.85
2018-06-16T17:46:38.382Z,4.03
2018-06-16T17:49:07.270Z,4.35
2018-06-16T17:51:36.320Z,3.55
2018-06-16T17:54:06.363Z,3.55
2018-06-16T17:56:35.244Z,5.10
2018-06-16T17:59:04.231Z,4.67
2018-06-16T18:01:33.107Z,3.80
2018-06-16T18:04:02.100Z,3.62
2018-06-16T18:06:30.956Z,4.37
2018-06-16T18:08:59.832Z,4.45
2018-06-16T18:11:28.792Z,4.55
2018-06-16T18:13:57.695Z,3.85
2018-06-16T18:16:26.827Z,4.20
2018-06-16T18:18:55.806Z,4.25
2018-06-16T18:21:25.104Z,4.58
2018-06-16T18:23:54.028Z,3.92
2018-06-16T18:26:23.114Z,3.95
2018-06-16T18:28:52.107Z,4.62
2018-06-16T18:31:21.112Z,4.20
2018-06-16T18:33:50.008Z,4.78
2018-06-16T18:36:18.875Z,4.05
2018-06-16T18:38:47.840Z,5.17
2018-06-16T18:41:16.845Z,5.40
2018-06-16T18:43:46.111Z,5.05
2018-06-16T18:46:15.447Z,5.08
2018-06-16T18:48:44.913Z,4.87
2018-06-16T18:51:14.468Z,5.08
2018-06-16T18:53:43.811Z,4.47
2018-06-16T18:56:13.188Z,4.65
2018-06-16T18:58:42.450Z,5.80
2018-06-16T19:01:13.465Z,5.55
2018-06-16T19:03:42.692Z,4.62
2018-06-16T19:06:11.880Z,5.15
2018-06-16T19:08:40.971Z,5.30
2018-06-16T19:11:10.234Z,5.30
2018-06-16T19:13:39.551Z,5.30
2018-06-16T19:16:08.537Z,5.62
2018-06-16T19:18:37.449Z,5.42
2018-06-16T19:21:06.488Z,5.42
2018-06-16T19:23:35.472Z,5.20
2018-06-16T19:26:04.351Z,6.00
2018-06-16T19:28:33.247Z,5.42
2018-06-16T19:31:02.206Z,5.55
2018-06-16T19:33:31.078Z,5.40
2018-06-16T19:36:00.140Z,6.67
2018-06-16T19:38:29.243Z,5.42
2018-06-16T19:40:58.422Z,6.20
2018-06-16T19:43:27.831Z,6.15
2018-06-16T19:45:57.130Z,7.05
2018-06-16T19:48:26.054Z,6.28
2018-06-16T19:50:54.986Z,6.30
2018-06-16T19:53:23.993Z,7.25
2018-06-16T19:55:52.836Z,5.92
2018-06-16T19:58:21.805Z,6.35
2018-06-16T20:00:50.903Z,7.42
2018-06-16T20:03:20.111Z,7.35
2018-06-16T20:05:49.281Z,6.45
2018-06-16T20:08:18.469Z,6.67
2018-06-16T20:10:48.457Z,6.15
2018-06-16T20:13:17.449Z,6.78
2018-06-16T20:15:46.900Z,6.90
2018-06-16T20:18:16.234Z,7.72
2018-06-16T20:20:45.139Z,7.22
2018-06-16T20:23:14.054Z,7.58
2018-06-16T20:25:44.794Z,6.58
2018-06-16T20:28:15.508Z,7.65
2018-06-16T20:30:45.786Z,6.40
2018-06-16T20:33:14.946Z,6.22
2018-06-16T20:35:43.979Z,5.37
2018-06-16T20:38:13.171Z,6.42
2018-06-16T20:40:42.256Z,7.10
2018-06-16T20:43:11.546Z,6.72
2018-06-16T20:45:40.543Z,6.60
2018-06-16T20:48:09.437Z,6.20
2018-06-16T20:50:38.565Z,6.60
2018-06-16T20:53:07.643Z,6.67
2018-06-16T20:55:37.055Z,6.45
2018-06-16T20:58:07.257Z,6.55
2018-06-16T21:00:37.205Z,6.65
2018-06-16T21:03:06.995Z,8.08
2018-06-16T21:05:36.727Z,7.05
2018-06-16T21:08:06.537Z,7.03
2018-06-16T21:10:38.109Z,6.80
2018-06-16T21:13:08.648Z,6.83
2018-06-16T21:15:39.228Z,6.70
2018-06-16T21:18:08.509Z,7.83
2018-06-16T21:20:37.775Z,8.03
2018-06-16T21:23:06.687Z,8.38
2018-06-16T21:25:35.829Z,6.87
2018-06-16T21:28:04.752Z,7.67
2018-06-16T21:30:33.951Z,7.72
2018-06-16T21:33:02.843Z,6.80
2018-06-16T21:35:31.894Z,7.50
2018-06-16T21:38:00.753Z,6.80
2018-06-16T21:40:29.694Z,8.18
2018-06-16T21:42:58.576Z,7.50
2018-06-16T21:45:27.564Z,7.25
2018-06-16T21:47:56.644Z,7.70
2018-06-16T21:50:25.546Z,7.37
2018-06-16T21:52:54.458Z,8.08
2018-06-16T21:55:23.417Z,7.58
2018-06-16T21:57:52.299Z,7.78
2018-06-16T22:00:22.030Z,7.28
2018-06-16T22:02:50.944Z,8.05
2018-06-16T22:05:19.855Z,8.43
2018-06-16T22:07:48.763Z,8.15
2018-06-16T22:10:17.969Z,7.67
2018-06-16T22:12:47.183Z,8.33
2018-06-16T22:15:16.083Z,8.08
2018-06-16T22:17:45.250Z,8.00
2018-06-16T22:20:14.237Z,8.63
2018-06-16T22:22:43.134Z,7.95
2018-06-16T22:25:12.031Z,8.20
2018-06-16T22:27:41.007Z,8.28
2018-06-16T22:30:09.954Z,8.50
2018-06-16T22:32:38.888Z,7.60
2018-06-16T22:35:07.880Z,8.05
2018-06-16T22:37:36.880Z,8.55
2018-06-16T22:40:05.951Z,7.83
2018-06-16T22:42:34.850Z,7.78
2018-06-16T22:45:03.803Z,8.10
2018-06-16T22:47:33.089Z,8.08
2018-06-16T22:50:03.018Z,8.10
2018-06-16T22:52:31.881Z,7.62
2018-06-16T22:55:01.028Z,8.10
2018-06-16T22:57:30.121Z,8.25
2018-06-16T22:59:59.113Z,8.78
2018-06-16T23:02:28.310Z,7.67
2018-06-16T23:04:57.465Z,8.73
2018-06-16T23:07:26.452Z,9.08
2018-06-16T23:09:55.423Z,8.90
2018-06-16T23:12:24.351Z,8.98
2018-06-16T23:14:53.260Z,9.08
2018-06-16T23:17:22.145Z,9.10
2018-06-16T23:19:51.009Z,9.00
2018-06-16T23:22:19.979Z,8.18
2018-06-16T23:24:49.080Z,8.63
2018-06-16T23:27:18.110Z,8.98
2018-06-16T23:29:47.289Z,8.70
2018-06-16T23:32:16.172Z,8.68
2018-06-16T23:34:45.077Z,9.08
2018-06-16T23:37:14.281Z,8.18
2018-06-16T23:39:43.487Z,8.43
2018-06-16T23:42:12.567Z,8.68
2018-06-16T23:44:41.831Z,9.58
2018-06-16T23:47:10.920Z,9.40
2018-06-16T23:49:40.108Z,8.65
2018-06-16T23:52:08.987Z,9.45
2018-06-16T23:54:38.238Z,8.35
2018-06-16T23:57:07.404Z,10.00
2018-06-16T23:59:36.799Z,9.70
